Time;durP1;ratioP1;P1;durP2;ratioP2;P2;SDS_P1;SDS_P2;PMS_P1;PMS_P2;Temp;Humidity;BMP_temperature;BMP_pressure;BME280_temperature;BME280_humidity;BME280_pressure;Samples;Min_cycle;Max_cycle;Signal;HPM_P1;HPM_P2
2022/08/17 00:00:31;;;;;;;5.35;3.25;;;23.80;82.00;;;;;;5038278;28;20051;-82
2022/08/17 00:03:11;;;;;;;6.07;3.63;;;23.80;84.00;;;;;;5021170;28;20025;-83
2022/08/17 00:05:53;;;;;;;6.57;3.20;;;23.70;84.90;;;;;;5036565;28;20026;-88
2022/08/17 00:08:23;;;;;;;6.07;3.33;;;23.70;85.30;;;;;;5019195;28;20026;-84
2022/08/17 00:10:50;;;;;;;6.60;3.83;;;23.70;88.00;;;;;;5038585;28;20073;-83
2022/08/17 00:13:24;;;;;;;7.20;3.92;;;23.60;87.60;;;;;;5037812;28;20036;-83
2022/08/17 00:15:53;;;;;;;4.78;3.33;;;23.60;90.20;;;;;;5038011;28;20050;-84
2022/08/17 00:18:19;;;;;;;9.20;3.55;;;23.60;90.40;;;;;;5037751;28;20052;-82
2022/08/17 00:20:45;;;;;;;7.40;3.78;;;23.50;90.70;;;;;;5021176;28;20018;-82
2022/08/17 00:23:15;;;;;;;7.47;3.55;;;23.50;91.70;;;;;;5036018;28;20092;-86
2022/08/17 00:25:44;;;;;;;6.93;3.42;;;23.50;92.00;;;;;;5029921;28;20097;-87
2022/08/17 00:28:11;;;;;;;5.95;3.88;;;23.50;92.40;;;;;;5013919;28;20030;-87
2022/08/17 00:30:38;;;;;;;7.63;3.90;;;23.50;93.10;;;;;;5034427;28;20032;-82
2022/08/17 00:33:11;;;;;;;5.50;3.92;;;23.40;93.70;;;;;;5037448;28;20013;-86
2022/08/17 00:35:38;;;;;;;8.00;4.32;;;23.40;94.40;;;;;;5014968;28;20048;-85
2022/08/17 00:38:08;;;;;;;7.78;3.97;;;23.30;95.10;;;;;;5017254;28;20014;-87
2022/08/17 00:40:40;;;;;;;10.88;4.20;;;23.10;95.80;;;;;;5036763;28;20040;-84
2022/08/17 00:43:16;;;;;;;7.25;3.92;;;23.10;96.60;;;;;;5033617;28;20033;-86
2022/08/17 00:45:43;;;;;;;6.53;3.80;;;23.00;97.20;;;;;;5020905;28;20018;-83
2022/08/17 00:48:10;;;;;;;7.10;3.85;;;23.00;97.60;;;;;;5040223;28;20013;-80
2022/08/17 00:50:37;;;;;;;7.70;3.90;;;22.90;98.10;;;;;;5041744;28;20045;-82
2022/08/17 00:53:04;;;;;;;7.95;3.92;;;22.80;98.50;;;;;;5041719;28;20018;-83
2022/08/17 00:55:31;;;;;;;5.32;3.83;;;22.80;99.20;;;;;;5041481;28;20105;-83
2022/08/17 00:58:01;;;;;;;10.20;4.13;;;22.80;99.80;;;;;;5020230;28;20029;-86
2022/08/17 01:00:32;;;;;;;5.28;3.80;;;22.80;99.90;;;;;;5034647;28;20026;-83
2022/08/17 01:03:05;;;;;;;6.22;3.72;;;22.80;99.90;;;;;;5017954;28;20021;-87
2022/08/17 01:05:32;;;;;;;5.50;4.10;;;22.70;99.90;;;;;;5036099;28;20042;-82
2022/08/17 01:08:01;;;;;;;5.53;3.50;;;22.70;99.90;;;;;;5036677;28;20026;-84
2022/08/17 01:10:41;;;;;;;8.43;3.03;;;22.70;99.90;;;;;;5038857;28;20050;-84
2022/08/17 01:13:07;;;;;;;5.30;3.17;;;22.60;99.90;;;;;;5040706;28;20029;-84
2022/08/17 01:15:36;;;;;;;4.30;2.72;;;22.60;99.90;;;;;;5020901;28;20060;-85
2022/08/17 01:18:06;;;;;;;5.30;3.30;;;22.50;99.90;;;;;;5040260;28;20026;-84
2022/08/17 01:20:33;;;;;;;6.60;3.63;;;22.40;99.90;;;;;;5040993;28;20098;-83
2022/08/17 01:22:59;;;;;;;5.80;3.70;;;22.40;99.90;;;;;;5040907;28;20014;-81
2022/08/17 01:25:27;;;;;;;4.32;3.15;;;22.40;99.90;;;;;;5040880;28;20073;-82
2022/08/17 01:27:53;;;;;;;6.22;3.40;;;22.50;99.90;;;;;;5023838;28;20309;-81
2022/08/17 01:30:19;;;;;;;4.93;2.83;;;22.50;99.90;;;;;;5024125;28;20025;-82
2022/08/17 01:32:44;;;;;;;6.57;3.50;;;22.50;99.90;;;;;;5023838;28;20021;-83
2022/08/17 01:35:11;;;;;;;3.55;3.10;;;22.50;99.90;;;;;;5023708;28;20042;-82
2022/08/17 01:37:39;;;;;;;5.00;3.13;;;22.60;99.90;;;;;;5023528;28;20065;-82
2022/08/17 01:40:09;;;;;;;4.95;3.10;;;22.60;99.90;;;;;;5040283;28;20014;-83
2022/08/17 01:42:50;;;;;;;5.00;3.33;;;22.60;99.90;;;;;;5040572;28;20014;-82
2022/08/17 01:45:26;;;;;;;4.15;2.90;;;22.60;99.90;;;;;;5040438;28;20018;-82
2022/08/17 01:47:53;;;;;;;3.40;3.03;;;22.50;99.90;;;;;;5022979;28;20034;-81
2022/08/17 01:50:24;;;;;;;5.43;3.10;;;22.50;99.90;;;;;;5039152;28;20094;-84
2022/08/17 01:52:54;;;;;;;4.88;3.30;;;22.40;99.90;;;;;;5036944;28;20064;-84
2022/08/17 01:55:25;;;;;;;9.57;3.20;;;22.30;99.90;;;;;;5019936;28;20579;-81
2022/08/17 01:57:51;;;;;;;6.43;3.50;;;22.30;99.90;;;;;;5039997;28;20817;-81
2022/08/17 02:00:17;;;;;;;7.25;3.38;;;22.30;99.90;;;;;;5038923;28;20045;-83
2022/08/17 02:02:44;;;;;;;11.48;3.47;;;22.20;99.90;;;;;;5040172;28;20053;-81
2022/08/17 02:05:11;;;;;;;6.97;3.15;;;22.10;99.90;;;;;;5023119;28;20077;-83
2022/08/17 02:07:37;;;;;;;5.80;3.53;;;22.00;99.90;;;;;;5040301;28;20034;-82
2022/08/17 02:10:07;;;;;;;4.82;2.75;;;21.90;99.90;;;;;;5022869;28;20033;-82
2022/08/17 02:12:36;;;;;;;4.90;3.30;;;21.90;99.90;;;;;;5023081;28;20036;-85
2022/08/17 02:15:05;;;;;;;4.25;3.10;;;21.90;99.90;;;;;;5039736;28;20045;-86
2022/08/17 02:17:33;;;;;;;5.10;3.10;;;22.00;99.90;;;;;;5039758;28;20093;-83
2022/08/17 02:19:58;;;;;;;6.35;3.67;;;22.00;99.90;;;;;;5039856;28;20040;-81
2022/08/17 02:22:25;;;;;;;4.82;3.13;;;22.00;99.90;;;;;;5039997;28;20018;-81
2022/08/17 02:24:52;;;;;;;7.38;3.47;;;22.10;99.90;;;;;;5039926;28;20022;-83
2022/08/17 02:27:18;;;;;;;7.03;3.50;;;22.10;99.90;;;;;;5022986;28;20022;-82
2022/08/17 02:29:44;;;;;;;5.30;3.47;;;22.10;99.90;;;;;;5022904;28;20016;-82
2022/08/17 02:32:22;;;;;;;7.15;3.60;;;22.10;99.90;;;;;;5039911;28;20022;-82
2022/08/17 02:34:48;;;;;;;6.03;3.28;;;22.00;99.90;;;;;;5039540;28;20062;-82
2022/08/17 02:37:16;;;;;;;6.88;3.05;;;21.80;99.90;;;;;;5038256;28;20080;-84
2022/08/17 02:39:44;;;;;;;6.38;3.00;;;21.70;99.90;;;;;;5038439;28;20061;-84
2022/08/17 02:42:12;;;;;;;4.20;3.38;;;21.60;99.90;;;;;;5038292;28;20029;-85
2022/08/17 02:44:38;;;;;;;5.30;3.55;;;21.60;99.90;;;;;;5019895;28;20030;-81
2022/08/17 02:47:06;;;;;;;5.82;3.40;;;21.70;99.90;;;;;;5019640;28;20582;-85
2022/08/17 02:49:32;;;;;;;5.45;3.15;;;21.80;99.90;;;;;;5019125;28;20049;-86
2022/08/17 02:51:57;;;;;;;5.30;3.72;;;21.80;99.90;;;;;;5032656;28;20026;-84
2022/08/17 02:54:24;;;;;;;5.85;3.13;;;21.80;99.90;;;;;;5033310;28;20045;-83
2022/08/17 02:56:50;;;;;;;4.75;3.22;;;22.00;99.90;;;;;;5020115;28;20059;-82
2022/08/17 02:59:16;;;;;;;5.78;3.05;;;22.00;99.90;;;;;;5020886;28;20060;-81
2022/08/17 03:01:42;;;;;;;5.95;3.33;;;22.10;99.90;;;;;;5022056;28;20014;-82
2022/08/17 03:04:08;;;;;;;3.70;3.03;;;22.10;99.90;;;;;;5038799;28;20030;-82
2022/08/17 03:06:34;;;;;;;5.80;3.60;;;22.20;99.90;;;;;;5038972;28;20033;-82
2022/08/17 03:09:00;;;;;;;9.50;3.90;;;22.10;99.90;;;;;;5021719;28;20025;-82
2022/08/17 03:11:25;;;;;;;5.22;3.40;;;21.90;99.90;;;;;;5038762;28;20077;-80
2022/08/17 03:13:51;;;;;;;4.47;3.47;;;21.80;99.90;;;;;;5038821;28;20018;-83
2022/08/17 03:16:17;;;;;;;4.90;3.70;;;21.60;99.90;;;;;;5038598;28;20026;-82
2022/08/17 03:18:43;;;;;;;5.15;3.45;;;21.40;99.90;;;;;;5038468;28;20073;-81
2022/08/17 03:21:08;;;;;;;6.30;3.50;;;21.20;99.90;;;;;;5038788;28;20018;-81
2022/08/17 03:23:40;;;;;;;4.55;3.45;;;21.20;99.90;;;;;;5038730;28;20044;-81
2022/08/17 03:26:09;;;;;;;4.72;3.58;;;21.10;99.90;;;;;;5038634;28;20049;-82
2022/08/17 03:28:39;;;;;;;6.90;4.45;;;21.10;99.90;;;;;;5038159;28;20025;-85
2022/08/17 03:31:05;;;;;;;7.13;3.70;;;20.90;99.90;;;;;;5021571;28;20014;-82
2022/08/17 03:33:32;;;;;;;5.85;3.58;;;20.80;99.90;;;;;;5038483;28;20038;-82
2022/08/17 03:35:58;;;;;;;6.55;4.00;;;20.80;99.90;;;;;;5038552;28;20049;-83
2022/08/17 03:38:25;;;;;;;7.95;3.42;;;20.90;99.90;;;;;;5021256;28;20018;-82
2022/08/17 03:40:52;;;;;;;3.97;3.10;;;21.20;99.90;;;;;;5021555;28;20027;-81
2022/08/17 03:43:20;;;;;;;6.25;3.42;;;21.50;99.90;;;;;;5038542;28;20040;-83
2022/08/17 03:57:06;;;;;;;6.88;3.97;;;21.40;99.90;;;;;;5057834;28;20032;-83
2022/08/17 03:59:33;;;;;;;8.68;3.83;;;21.30;99.90;;;;;;5056965;28;20167;-82
2022/08/17 04:02:06;;;;;;;5.85;3.65;;;21.10;99.90;;;;;;5057270;28;20013;-82
2022/08/17 04:04:32;;;;;;;7.35;3.90;;;21.00;99.90;;;;;;5058028;28;20017;-86
2022/08/17 04:06:58;;;;;;;7.95;4.15;;;20.80;99.90;;;;;;5041459;28;20028;-85
2022/08/17 04:09:25;;;;;;;6.70;3.75;;;20.70;99.90;;;;;;5041885;28;20021;-89
2022/08/17 04:11:52;;;;;;;7.10;4.22;;;20.70;99.90;;;;;;5021570;28;20026;-85
2022/08/17 04:14:18;;;;;;;7.32;3.97;;;20.60;99.90;;;;;;5021778;28;20034;-86
2022/08/17 04:16:44;;;;;;;6.97;3.75;;;20.60;99.90;;;;;;5004539;28;20086;-86
2022/08/17 04:19:09;;;;;;;11.07;4.20;;;20.50;99.90;;;;;;5005374;28;20025;-88
2022/08/17 04:21:35;;;;;;;6.15;3.85;;;20.50;99.90;;;;;;5005129;28;20010;-87
2022/08/17 04:24:02;;;;;;;5.25;3.78;;;20.50;99.90;;;;;;5021500;28;20014;-88
2022/08/17 04:26:29;;;;;;;7.25;4.35;;;20.50;99.90;;;;;;5021818;28;20018;-86
2022/08/17 04:28:55;;;;;;;13.02;4.03;;;20.50;99.90;;;;;;5020538;28;20010;-85
2022/08/17 04:31:21;;;;;;;5.38;3.90;;;20.50;99.90;;;;;;5020653;28;20071;-84
2022/08/17 04:33:50;;;;;;;5.88;4.45;;;20.50;99.90;;;;;;5019862;28;20014;-85
2022/08/17 04:36:17;;;;;;;9.63;4.07;;;20.60;99.90;;;;;;5021580;28;20014;-88
2022/08/17 04:38:45;;;;;;;6.40;4.32;;;20.60;99.90;;;;;;5147770;23;20041;-87
2022/08/17 04:43:58;;;;;;;7.35;4.53;;;20.60;99.90;;;;;;5021404;28;20036;-88
2022/08/17 04:46:27;;;;;;;8.98;3.42;;;20.60;99.90;;;;;;5005225;28;20018;-87
2022/08/17 04:48:55;;;;;;;11.20;4.10;;;20.70;99.90;;;;;;5019746;28;20029;-87
2022/08/17 04:51:25;;;;;;;8.32;3.72;;;20.70;99.90;;;;;;5005479;28;20029;-88
2022/08/17 04:53:54;;;;;;;6.90;4.10;;;20.80;99.90;;;;;;5021558;28;20026;-88
2022/08/17 04:56:22;;;;;;;4.45;3.65;;;20.90;99.90;;;;;;5021508;28;20014;-87
2022/08/17 04:58:51;;;;;;;7.57;3.75;;;21.00;99.90;;;;;;5038433;28;20033;-89
2022/08/17 05:01:20;;;;;;;8.98;4.18;;;21.00;99.90;;;;;;5005124;28;20041;-87
2022/08/17 05:03:49;;;;;;;9.88;4.25;;;21.10;99.90;;;;;;5021362;28;20029;-88
2022/08/17 05:06:15;;;;;;;8.10;3.80;;;21.10;99.90;;;;;;5004906;28;20041;-88
2022/08/17 05:08:41;;;;;;;11.10;3.60;;;21.20;99.90;;;;;;5004468;28;20025;-89
2022/08/17 05:11:09;;;;;;;5.68;3.22;;;21.20;99.90;;;;;;5017406;28;20041;-83
2022/08/17 05:13:35;;;;;;;8.60;3.72;;;21.30;99.90;;;;;;5014475;28;20390;-86
2022/08/17 05:16:03;;;;;;;6.28;3.95;;;21.40;99.90;;;;;;5007017;23;20136;-77
2022/08/17 05:18:30;;;;;;;8.75;3.88;;;21.50;99.90;;;;;;4997792;28;20032;-76
2022/08/17 05:20:57;;;;;;;6.97;3.85;;;21.50;99.90;;;;;;4977169;28;20486;-77
2022/08/17 05:23:25;;;;;;;13.05;4.43;;;21.70;99.90;;;;;;4994011;28;20048;-76
2022/08/17 05:25:54;;;;;;;10.13;4.45;;;21.70;99.90;;;;;;4976598;28;20030;-76
2022/08/17 05:28:21;;;;;;;5.88;4.00;;;21.80;99.90;;;;;;4993798;28;20073;-77
2022/08/17 05:30:48;;;;;;;26.40;5.53;;;21.90;99.90;;;;;;4995646;28;20105;-84
2022/08/17 05:33:16;;;;;;;39.63;6.00;;;22.00;99.90;;;;;;4961171;28;20031;-76
2022/08/17 05:35:45;;;;;;;26.58;5.25;;;22.10;99.90;;;;;;4980867;28;20030;-78
2022/08/17 05:38:12;;;;;;;21.55;5.38;;;22.20;99.90;;;;;;5001543;28;20073;-78
2022/08/17 05:40:39;;;;;;;16.13;5.15;;;22.30;99.90;;;;;;4985005;28;20085;-77
2022/08/17 05:43:29;;;;;;;10.80;4.47;;;22.60;99.90;;;;;;5001503;28;20091;-78
2022/08/17 05:46:14;;;;;;;14.00;4.47;;;23.00;99.90;;;;;;4992309;28;20483;-77
2022/08/17 05:48:46;;;;;;;12.05;4.53;;;23.10;99.90;;;;;;4994556;28;20026;-78
2022/08/17 05:52:00;;;;;;;10.70;4.40;;;23.20;99.90;;;;;;4981000;28;20039;-77
2022/08/17 05:54:32;;;;;;;12.73;4.30;;;23.30;99.90;;;;;;4997867;28;20030;-78
2022/08/17 05:57:16;;;;;;;12.60;4.28;;;23.30;99.90;;;;;;4998135;28;20091;-77
2022/08/17 06:00:21;;;;;;;9.75;4.93;;;23.30;99.90;;;;;;4997714;28;20049;-77
2022/08/17 06:03:02;;;;;;;11.48;4.10;;;23.40;99.90;;;;;;4984776;28;20129;-77
2022/08/17 06:05:54;;;;;;;13.90;4.70;;;23.50;99.90;;;;;;4998759;28;20030;-78
2022/08/17 06:08:29;;;;;;;8.35;4.47;;;23.60;99.90;;;;;;4998681;28;20034;-78
2022/08/17 06:10:57;;;;;;;7.63;4.30;;;23.80;99.90;;;;;;4998610;28;20065;-77
2022/08/17 06:13:41;;;;;;;13.13;4.38;;;23.90;99.90;;;;;;4999115;28;20318;-77
2022/08/17 06:16:14;;;;;;;12.70;4.78;;;24.10;99.90;;;;;;4985698;28;20034;-76
2022/08/17 06:19:15;;;;;;;9.68;4.10;;;24.20;99.90;;;;;;5005479;28;20029;-77
2022/08/17 06:21:46;;;;;;;9.95;3.88;;;24.20;99.90;;;;;;4986489;28;20364;-76
2022/08/17 06:24:17;;;;;;;12.52;5.03;;;24.40;99.90;;;;;;4985784;28;20107;-78
2022/08/17 06:26:44;;;;;;;13.93;4.95;;;24.40;99.90;;;;;;5001229;28;20026;-78
2022/08/17 06:29:16;;;;;;;13.73;4.20;;;24.50;99.90;;;;;;5001371;28;20443;-77
2022/08/17 06:31:42;;;;;;;13.40;4.90;;;24.50;99.90;;;;;;5000324;28;20150;-77
2022/08/17 06:34:10;;;;;;;10.75;4.47;;;24.60;99.90;;;;;;4999266;28;20030;-76
2022/08/17 06:36:55;;;;;;;10.05;3.65;;;24.60;99.90;;;;;;5002092;28;20030;-77
2022/08/17 06:39:38;;;;;;;15.23;4.28;;;24.60;99.90;;;;;;4984648;28;20023;-78
2022/08/17 06:42:29;;;;;;;11.43;4.47;;;24.70;99.90;;;;;;5000352;28;20022;-77
2022/08/17 06:45:13;;;;;;;7.50;3.90;;;24.70;99.90;;;;;;4981073;28;20692;-77
2022/08/17 06:47:54;;;;;;;9.10;3.85;;;24.80;99.90;;;;;;4979445;28;20113;-78
2022/08/17 06:50:43;;;;;;;20.40;3.97;;;24.80;99.90;;;;;;4997973;28;20038;-77
2022/08/17 06:53:36;;;;;;;8.48;4.40;;;25.00;99.90;;;;;;4982985;28;20365;-78
2022/08/17 06:56:12;;;;;;;8.77;3.80;;;25.10;99.90;;;;;;4975352;28;20044;-78
2022/08/17 06:58:42;;;;;;;9.15;4.13;;;25.20;99.90;;;;;;4981451;28;20038;-78
2022/08/17 07:01:09;;;;;;;6.78;3.33;;;25.20;99.90;;;;;;4983741;28;20046;-80
2022/08/17 07:03:40;;;;;;;9.05;3.97;;;25.30;99.90;;;;;;5000492;28;20585;-78
2022/08/17 07:06:13;;;;;;;9.52;3.67;;;25.50;99.90;;;;;;4993094;28;20042;-81
2022/08/17 07:09:01;;;;;;;14.57;4.55;;;25.70;99.90;;;;;;4994326;28;20030;-82
2022/08/17 07:11:36;;;;;;;13.45;3.47;;;25.70;99.70;;;;;;5009653;28;20030;-81
2022/08/17 07:14:17;;;;;;;10.88;4.15;;;25.80;99.50;;;;;;5006593;28;20034;-80
2022/08/17 07:16:50;;;;;;;16.35;3.65;;;26.00;99.10;;;;;;5005531;28;20044;-81
2022/08/17 07:19:21;;;;;;;11.25;4.10;;;26.10;98.70;;;;;;4985421;28;20061;-85
2022/08/17 07:22:00;;;;;;;7.25;3.70;;;26.00;98.80;;;;;;5005601;28;20566;-81
2022/08/17 07:24:43;;;;;;;11.15;3.35;;;26.10;98.90;;;;;;5006643;28;20173;-83
2022/08/17 07:27:26;;;;;;;10.35;3.83;;;26.10;98.50;;;;;;5005845;28;20683;-83
2022/08/17 07:29:55;;;;;;;11.02;3.60;;;26.20;98.40;;;;;;4988322;28;20038;-82
2022/08/17 07:32:37;;;;;;;7.30;3.85;;;26.20;98.20;;;;;;4986083;28;20026;-82
2022/08/17 07:35:19;;;;;;;6.82;3.63;;;26.40;97.70;;;;;;5002154;28;20034;-82
2022/08/17 07:38:06;;;;;;;7.38;3.40;;;26.50;97.50;;;;;;4984169;28;20041;-83
2022/08/17 07:40:35;;;;;;;10.88;3.78;;;26.50;97.20;;;;;;4984367;28;20034;-81
2022/08/17 07:43:12;;;;;;;10.02;4.00;;;26.60;97.00;;;;;;4984267;28;20058;-81
2022/08/17 07:48:48;;;;;;;6.15;3.97;;;26.90;96.60;;;;;;5005438;28;20045;-83
2022/08/17 07:51:28;;;;;;;5.35;3.60;;;27.00;96.20;;;;;;5004703;28;20018;-81
2022/08/17 07:53:58;;;;;;;9.65;4.00;;;27.10;96.10;;;;;;5002490;28;20117;-82
2022/08/17 07:56:50;;;;;;;8.05;4.18;;;27.10;96.20;;;;;;5001553;28;20597;-83
2022/08/17 07:59:18;;;;;;;11.77;4.18;;;27.30;95.80;;;;;;4987353;28;20084;-82
2022/08/17 08:02:06;;;;;;;8.95;4.80;;;27.40;95.60;;;;;;5004209;28;20098;-82
2022/08/17 08:04:46;;;;;;;11.55;4.15;;;27.40;95.30;;;;;;4972397;28;20105;-83
2022/08/17 08:07:25;;;;;;;9.43;4.63;;;27.40;95.10;;;;;;5007612;28;20041;-82
2022/08/17 08:10:07;;;;;;;13.02;3.92;;;27.50;95.10;;;;;;4985155;28;20034;-82
2022/08/17 08:12:35;;;;;;;11.10;4.15;;;27.60;94.80;;;;;;5008876;28;20029;-81
2022/08/17 08:15:19;;;;;;;10.73;3.97;;;27.70;94.50;;;;;;5015125;28;20026;-82
2022/08/17 08:17:56;;;;;;;13.73;4.50;;;27.70;94.20;;;;;;5004837;28;20094;-82
2022/08/17 08:20:39;;;;;;;9.98;5.30;;;27.70;94.20;;;;;;5001004;28;20026;-82
2022/08/17 08:23:36;;;;;;;14.60;5.43;;;27.80;94.00;;;;;;4986812;28;20094;-82
2022/08/17 08:26:07;;;;;;;11.80;4.13;;;27.70;93.80;;;;;;4989002;28;20084;-82
2022/08/17 08:28:53;;;;;;;9.75;4.25;;;27.80;93.90;;;;;;5004383;28;20038;-82
2022/08/17 08:31:50;;;;;;;13.40;4.70;;;27.80;93.30;;;;;;5003677;28;20045;-82
2022/08/17 08:34:31;;;;;;;16.95;5.03;;;27.80;93.40;;;;;;4986757;28;20084;-83
2022/08/17 08:37:07;;;;;;;10.48;4.68;;;28.00;93.40;;;;;;5001872;28;20026;-84
2022/08/17 08:39:50;;;;;;;6.72;4.22;;;28.20;93.20;;;;;;4990476;28;20034;-83
2022/08/17 08:42:28;;;;;;;7.00;4.47;;;28.40;92.90;;;;;;5001041;28;20030;-81
2022/08/17 08:45:12;;;;;;;11.73;5.07;;;28.60;92.40;;;;;;4985219;28;20061;-81
2022/08/17 08:48:05;;;;;;;12.70;4.63;;;28.60;92.60;;;;;;5000481;28;20069;-83
2022/08/17 08:51:05;;;;;;;9.43;4.50;;;28.90;91.90;;;;;;5002014;28;20368;-82
2022/08/17 08:53:47;;;;;;;6.97;4.70;;;28.90;91.40;;;;;;4984252;28;20038;-82
2022/08/17 08:56:30;;;;;;;8.55;4.28;;;28.80;91.70;;;;;;5001066;28;20030;-82
2022/08/17 08:58:59;;;;;;;7.75;4.88;;;28.70;91.30;;;;;;5000399;28;20031;-81
2022/08/17 09:01:43;;;;;;;13.23;4.43;;;28.80;91.10;;;;;;5000360;28;20057;-83
2022/08/17 09:04:18;;;;;;;8.50;4.65;;;28.90;91.10;;;;;;5000081;28;20057;-83
2022/08/17 09:06:58;;;;;;;17.42;5.38;;;29.10;90.90;;;;;;4984191;28;20223;-82
2022/08/17 09:10:01;;;;;;;8.90;5.00;;;29.20;90.80;;;;;;5002704;28;20030;-82
2022/08/17 09:12:56;;;;;;;12.88;4.68;;;29.30;90.60;;;;;;4986685;28;20053;-81
2022/08/17 09:15:27;;;;;;;11.93;4.50;;;29.40;90.90;;;;;;5018801;28;20050;-80
2022/08/17 09:18:12;;;;;;;11.25;5.07;;;29.40;90.10;;;;;;5004108;28;20073;-80
2022/08/17 09:20:45;;;;;;;7.38;5.18;;;29.40;89.50;;;;;;5003885;28;20030;-80
2022/08/17 09:23:35;;;;;;;11.27;4.78;;;29.40;89.50;;;;;;5020156;28;20027;-80
2022/08/17 09:26:21;;;;;;;7.82;4.50;;;29.50;88.80;;;;;;5002628;28;20053;-79
2022/08/17 09:28:51;;;;;;;10.18;4.88;;;29.80;88.40;;;;;;5019974;28;20029;-81
2022/08/17 09:31:22;;;;;;;11.82;4.70;;;30.20;87.20;;;;;;5020287;28;20022;-80
2022/08/17 09:33:50;;;;;;;12.60;5.13;;;30.70;86.10;;;;;;5020154;28;20101;-79
2022/08/17 09:36:35;;;;;;;8.73;4.32;;;31.30;84.90;;;;;;5002953;28;20076;-81
2022/08/17 09:39:04;;;;;;;;;;;32.00;82.60;;;;;;5020579;28;20030;-80
2022/08/17 09:41:50;;;;;;;8.35;4.75;;;32.70;80.60;;;;;;5020339;28;19917;-80
2022/08/17 09:44:31;;;;;;;9.73;4.20;;;33.20;78.60;;;;;;5020327;28;20026;-79
2022/08/17 09:47:03;;;;;;;12.70;4.13;;;33.90;76.60;;;;;;5018503;28;20402;-81
2022/08/17 09:49:47;;;;;;;6.68;3.88;;;34.90;74.30;;;;;;4991312;28;20267;-81
2022/08/17 09:52:23;;;;;;;13.68;4.60;;;35.90;71.00;;;;;;5017396;28;20047;-81
2022/08/17 09:54:51;;;;;;;5.10;3.45;;;36.40;68.70;;;;;;5010414;28;20088;-82
2022/08/17 09:57:28;;;;;;;6.40;3.50;;;36.90;67.10;;;;;;4994106;28;20029;-80
2022/08/17 10:00:12;;;;;;;6.15;3.17;;;37.80;63.70;;;;;;4989418;28;20033;-82
2022/08/17 10:02:53;;;;;;;4.72;3.50;;;38.40;60.80;;;;;;5005611;28;20030;-81
2022/08/17 10:05:22;;;;;;;6.32;3.70;;;39.30;61.40;;;;;;5003847;28;20064;-81
2022/08/17 10:08:18;;;;;;;9.68;4.20;;;40.00;59.60;;;;;;4986933;28;20042;-82
2022/08/17 10:10:58;;;;;;;10.57;3.88;;;40.70;57.80;;;;;;5004268;28;20038;-81
2022/08/17 10:13:40;;;;;;;6.05;2.92;;;41.40;55.80;;;;;;4986795;28;20034;-82
2022/08/17 10:16:24;;;;;;;4.32;3.30;;;42.10;54.40;;;;;;5006306;28;20046;-80
2022/08/17 10:19:14;;;;;;;6.93;2.78;;;42.60;52.80;;;;;;5006055;28;20031;-80
2022/08/17 10:27:47;;;;;;;7.05;2.70;;;45.40;47.80;;;;;;5003000;28;20109;-82
2022/08/17 10:30:16;;;;;;;6.22;2.85;;;45.40;47.20;;;;;;5001819;28;20089;-82
2022/08/17 10:32:56;;;;;;;6.20;2.88;;;45.90;46.60;;;;;;5007357;28;20019;-82
2022/08/17 10:35:24;;;;;;;6.38;3.00;;;46.10;46.40;;;;;;5006808;28;20041;-81
2022/08/17 10:38:11;;;;;;;7.50;3.15;;;46.90;45.70;;;;;;5006692;28;20331;-83
2022/08/17 10:40:52;;;;;;;6.50;3.50;;;47.10;45.10;;;;;;4986858;28;20515;-81
2022/08/17 10:43:49;;;;;;;3.50;3.10;;;46.60;44.90;;;;;;5005683;28;20102;-81
2022/08/17 10:46:32;;;;;;;4.43;2.83;;;47.20;44.60;;;;;;5006300;28;20397;-83
2022/08/17 10:49:16;;;;;;;5.03;3.10;;;47.90;43.60;;;;;;5008254;28;20093;-82
2022/08/17 10:51:46;;;;;;;4.80;3.30;;;48.00;42.90;;;;;;5004565;28;20034;-82
2022/08/17 10:54:24;;;;;;;13.77;3.28;;;47.90;42.50;;;;;;5001496;28;20030;-82
2022/08/17 10:56:55;;;;;;;4.95;3.08;;;48.00;42.80;;;;;;4983741;28;20041;-81
2022/08/17 10:59:35;;;;;;;7.90;3.33;;;48.10;42.20;;;;;;5003019;28;20027;-82
2022/08/17 11:02:14;;;;;;;8.52;2.80;;;47.30;42.40;;;;;;5004744;28;20054;-81
2022/08/17 11:05:07;;;;;;;8.15;2.92;;;48.10;42.40;;;;;;5007478;28;20042;-81
2022/08/17 11:08:04;;;;;;;4.32;2.78;;;48.50;41.90;;;;;;5010988;28;20030;-81
2022/08/17 11:11:03;;;;;;;5.72;3.20;;;49.20;41.60;;;;;;5011901;28;20034;-79
2022/08/17 11:13:41;;;;;;;5.70;3.20;;;49.70;40.70;;;;;;5011484;28;20034;-82
2022/08/17 11:16:25;;;;;;;3.50;2.83;;;49.20;40.60;;;;;;5055831;23;20107;-84
2022/08/17 11:19:03;;;;;;;;;;;48.90;40.70;;;;;;5040520;28;20030;-83
2022/08/17 11:21:54;;;;;;;4.85;3.03;;;48.90;40.60;;;;;;5041181;28;19909;-83
2022/08/17 11:24:39;;;;;;;3.35;2.78;;;49.40;40.70;;;;;;5042352;28;20072;-83
2022/08/17 11:27:18;;;;;;;3.42;2.60;;;49.10;40.20;;;;;;5040937;28;20026;-82
2022/08/17 11:29:57;;;;;;;3.70;2.40;;;48.90;40.10;;;;;;5039628;28;20053;-84
2022/08/17 11:32:50;;;;;;;4.93;2.63;;;49.40;39.80;;;;;;5040061;28;20025;-82
2022/08/17 11:35:29;;;;;;;6.53;2.70;;;49.20;38.40;;;;;;5040378;28;20063;-81
2022/08/17 11:38:33;;;;;;;4.32;2.28;;;48.30;39.20;;;;;;5037364;28;20280;-82
2022/08/17 11:41:10;;;;;;;6.18;2.63;;;48.70;38.60;;;;;;5028012;28;20175;-81
2022/08/17 11:43:48;;;;;;;6.15;2.72;;;49.20;37.90;;;;;;5040634;28;20095;-82
2022/08/17 11:46:21;;;;;;;5.88;2.70;;;49.60;38.10;;;;;;5048020;28;20037;-80
2022/08/17 11:52:03;;;;;;;3.80;2.75;;;49.20;38.50;;;;;;5038190;28;20478;-82
2022/08/17 11:54:46;;;;;;;6.15;2.60;;;49.70;37.60;;;;;;5039238;28;20054;-82
2022/08/17 11:57:24;;;;;;;5.10;2.53;;;49.90;37.60;;;;;;5039482;28;20119;-83
2022/08/17 11:59:50;;;;;;;4.50;2.22;;;49.60;37.20;;;;;;5044792;28;20080;-83
2022/08/17 12:02:19;;;;;;;5.00;2.05;;;49.10;36.30;;;;;;5046498;28;20453;-81
2022/08/17 12:05:15;;;;;;;3.40;2.20;;;49.10;36.70;;;;;;5040127;28;20029;-82
2022/08/17 12:07:50;;;;;;;6.82;2.70;;;49.20;36.70;;;;;;5039295;28;20094;-81
2022/08/17 12:10:30;;;;;;;4.55;2.30;;;48.60;37.20;;;;;;5040112;28;20457;-82
2022/08/17 12:12:57;;;;;;;3.72;2.35;;;49.10;37.70;;;;;;5041253;28;20028;-83
2022/08/17 12:15:34;;;;;;;3.08;2.33;;;49.70;36.50;;;;;;5039660;28;20490;-83
2022/08/17 12:18:00;;;;;;;4.18;2.40;;;50.30;36.40;;;;;;5020642;28;20042;-83
2022/08/17 12:20:32;;;;;;;6.88;2.70;;;50.00;36.30;;;;;;5040156;28;20152;-80
2022/08/17 12:23:03;;;;;;;4.45;2.50;;;50.00;36.40;;;;;;5022283;28;20033;-82
2022/08/17 12:25:43;;;;;;;3.80;2.47;;;49.90;35.70;;;;;;5046982;28;20036;-82
2022/08/17 12:28:43;;;;;;;8.27;2.58;;;48.80;36.70;;;;;;5025665;28;20391;-82
2022/08/17 12:31:25;;;;;;;3.10;2.42;;;49.30;35.80;;;;;;5013797;28;20091;-82
2022/08/17 12:33:50;;;;;;;5.70;2.53;;;49.10;36.10;;;;;;5040992;28;20108;-83
2022/08/17 12:36:24;;;;;;;3.67;2.33;;;49.80;35.90;;;;;;5023638;28;20052;-82
2022/08/17 12:39:00;;;;;;;4.97;2.53;;;50.80;35.60;;;;;;5040960;28;20052;-82
2022/08/17 12:41:34;;;;;;;3.05;2.40;;;50.80;35.20;;;;;;5039966;28;20515;-83
2022/08/17 12:44:20;;;;;;;5.47;2.50;;;51.40;35.00;;;;;;5046673;28;20437;-83
2022/08/17 12:47:09;;;;;;;8.38;2.72;;;51.60;35.20;;;;;;5050383;28;20033;-83
2022/08/17 12:49:37;;;;;;;5.95;2.60;;;50.00;35.80;;;;;;5034783;28;20041;-82
2022/08/17 12:52:18;;;;;;;4.90;3.00;;;49.90;36.10;;;;;;5045155;28;20481;-82
2022/08/17 12:55:05;;;;;;;12.02;2.50;;;49.70;36.20;;;;;;5047251;28;20123;-82
2022/08/17 12:57:37;;;;;;;6.90;3.13;;;49.60;36.00;;;;;;5041319;28;20036;-83
2022/08/17 13:00:14;;;;;;;8.40;3.30;;;49.00;36.40;;;;;;5044745;28;20052;-82
2022/08/17 13:02:47;;;;;;;2.85;2.58;;;49.40;36.50;;;;;;5044780;28;20575;-82
2022/08/17 13:05:38;;;;;;;3.22;2.47;;;50.40;36.10;;;;;;5044570;28;20038;-82
2022/08/17 13:08:14;;;;;;;4.75;2.78;;;50.80;35.70;;;;;;5019404;28;20041;-83
2022/08/17 13:10:40;;;;;;;8.10;3.22;;;50.40;36.10;;;;;;5033470;28;20036;-83
2022/08/17 13:13:33;;;;;;;6.57;2.35;;;50.60;35.70;;;;;;5032353;28;20033;-82
2022/08/17 13:16:05;;;;;;;4.43;2.60;;;51.00;35.60;;;;;;5050266;28;20090;-83
2022/08/17 13:18:52;;;;;;;5.13;3.55;;;51.20;35.60;;;;;;5051958;28;20084;-82
2022/08/17 13:21:18;;;;;;;5.22;2.95;;;50.00;35.70;;;;;;5047685;28;20029;-82
2022/08/17 13:24:16;;;;;;;7.45;2.50;;;49.20;36.40;;;;;;5034406;28;20025;-80
2022/08/17 13:26:50;;;;;;;7.18;2.47;;;49.90;36.10;;;;;;5050689;28;20037;-82
2022/08/17 13:29:24;;;;;;;5.18;2.75;;;50.30;36.20;;;;;;5052520;28;20037;-81
2022/08/17 13:31:57;;;;;;;4.80;2.95;;;49.70;36.20;;;;;;5050680;28;20049;-82
2022/08/17 13:34:22;;;;;;;8.90;2.40;;;50.10;36.20;;;;;;5052542;28;20048;-80
2022/08/17 13:36:50;;;;;;;4.00;2.67;;;50.90;35.30;;;;;;5054828;28;20041;-80
2022/08/17 13:39:23;;;;;;;7.07;2.78;;;51.20;35.10;;;;;;5035468;28;20041;-81
2022/08/17 13:41:52;;;;;;;5.03;2.95;;;50.80;34.80;;;;;;5050433;28;20033;-83
2022/08/17 13:44:36;;;;;;;3.03;2.38;;;50.20;35.10;;;;;;5052377;28;20025;-82
2022/08/17 13:47:05;;;;;;;6.32;3.00;;;49.40;35.40;;;;;;5053078;28;20093;-81
2022/08/17 13:49:36;;;;;;;5.22;2.50;;;49.70;35.30;;;;;;5018973;28;20021;-81